sensor_id;sensor_type;location;lat;lon;timestamp;pressure;altitude;pressure_sealevel;temperature;humidity
1371;BME280;14306;49.942;11.570;2022-11-20T00:01:15;97047.41;;;-1.18;86.83
1371;BME280;14306;49.942;11.570;2022-11-20T00:03:41;97048.63;;;-1.25;86.95
1371;BME280;14306;49.942;11.570;2022-11-20T00:06:10;97056.31;;;-1.40;87.56
1371;BME280;14306;49.942;11.570;2022-11-20T00:08:36;97048.72;;;-1.48;87.10
1371;BME280;14306;49.942;11.570;2022-11-20T00:11:18;97044.41;;;-1.38;87.14
1371;BME280;14306;49.942;11.570;2022-11-20T00:13:45;97038.72;;;-1.30;86.69
1371;BME280;14306;49.942;11.570;2022-11-20T00:16:14;97039.81;;;-1.42;87.08
1371;BME280;14306;49.942;11.570;2022-11-20T00:18:40;97041.72;;;-1.26;87.29
1371;BME280;14306;49.942;11.570;2022-11-20T00:21:11;97034.09;;;-1.34;87.35
1371;BME280;14306;49.942;11.570;2022-11-20T00:23:36;97041.81;;;-1.49;88.21
1371;BME280;14306;49.942;11.570;2022-11-20T00:26:07;97051.13;;;-1.19;87.16
1371;BME280;14306;49.942;11.570;2022-11-20T00:28:32;97057.28;;;-1.30;86.52
1371;BME280;14306;49.942;11.570;2022-11-20T00:31:13;97049.78;;;-1.05;86.50
1371;BME280;14306;49.942;11.570;2022-11-20T00:33:39;97058.91;;;-1.29;86.84
1371;BME280;14306;49.942;11.570;2022-11-20T00:36:06;97054.31;;;-1.33;87.63
1371;BME280;14306;49.942;11.570;2022-11-20T00:38:33;97066.97;;;-1.52;86.67
1371;BME280;14306;49.942;11.570;2022-11-20T00:41:00;97065.03;;;-1.56;86.58
1371;BME280;14306;49.942;11.570;2022-11-20T00:43:26;97066.97;;;-1.52;87.53
1371;BME280;14306;49.942;11.570;2022-11-20T00:45:59;97066.88;;;-1.57;87.50
1371;BME280;14306;49.942;11.570;2022-11-20T00:48:24;97076.31;;;-1.49;87.45
1371;BME280;14306;49.942;11.570;2022-11-20T00:50:50;97072.41;;;-1.58;87.05
1371;BME280;14306;49.942;11.570;2022-11-20T00:53:16;97079.06;;;-1.44;86.68
1371;BME280;14306;49.942;11.570;2022-11-20T00:55:41;97084.28;;;-1.49;87.31
1371;BME280;14306;49.942;11.570;2022-11-20T00:58:06;97096.59;;;-1.43;87.49
1371;BME280;14306;49.942;11.570;2022-11-20T01:00:32;97097.09;;;-1.18;88.04
1371;BME280;14306;49.942;11.570;2022-11-20T01:02:57;97097.22;;;-1.25;88.77
1371;BME280;14306;49.942;11.570;2022-11-20T01:05:23;97094.81;;;-1.26;90.15
1371;BME280;14306;49.942;11.570;2022-11-20T01:07:48;97089.88;;;-1.06;90.43
1371;BME280;14306;49.942;11.570;2022-11-20T01:10:13;97092.06;;;-1.03;90.00
1371;BME280;14306;49.942;11.570;2022-11-20T01:12:39;97099.72;;;-0.90;89.77
1371;BME280;14306;49.942;11.570;2022-11-20T01:15:04;97102.53;;;-0.97;89.78
1371;BME280;14306;49.942;11.570;2022-11-20T01:17:31;97096.09;;;-0.68;89.69
1371;BME280;14306;49.942;11.570;2022-11-20T01:19:56;97092.66;;;-0.68;89.71
1371;BME280;14306;49.942;11.570;2022-11-20T01:22:21;97077.34;;;-0.94;89.91
1371;BME280;14306;49.942;11.570;2022-11-20T01:24:47;97075.72;;;-0.95;89.63
1371;BME280;14306;49.942;11.570;2022-11-20T01:27:12;97058.91;;;-1.01;88.67
1371;BME280;14306;49.942;11.570;2022-11-20T01:29:37;97066.22;;;-0.91;88.18
1371;BME280;14306;49.942;11.570;2022-11-20T01:32:03;97072.97;;;-1.00;87.01
1371;BME280;14306;49.942;11.570;2022-11-20T01:34:28;97083.94;;;-0.97;88.46
1371;BME280;14306;49.942;11.570;2022-11-20T01:36:54;97083.06;;;-0.69;88.16
1371;BME280;14306;49.942;11.570;2022-11-20T01:39:25;97075.59;;;-0.72;88.69
1371;BME280;14306;49.942;11.570;2022-11-20T01:41:51;97082.09;;;-0.63;88.74
1371;BME280;14306;49.942;11.570;2022-11-20T01:47:51;97074.25;;;-0.20;87.78
1371;BME280;14306;49.942;11.570;2022-11-20T01:50:22;97073.72;;;-0.22;87.55
1371;BME280;14306;49.942;11.570;2022-11-20T01:52:54;97085.13;;;-0.05;86.61
1371;BME280;14306;49.942;11.570;2022-11-20T01:55:26;97080.47;;;-0.15;86.53
1371;BME280;14306;49.942;11.570;2022-11-20T01:57:55;97080.03;;;-0.07;86.67
1371;BME280;14306;49.942;11.570;2022-11-20T02:00:21;97093.44;;;-0.02;87.30
1371;BME280;14306;49.942;11.570;2022-11-20T02:02:51;97089.34;;;0.13;86.63
1371;BME280;14306;49.942;11.570;2022-11-20T02:05:33;97070.72;;;-0.26;87.65
1371;BME280;14306;49.942;11.570;2022-11-20T02:08:03;97068.44;;;-0.01;86.92
1371;BME280;14306;49.942;11.570;2022-11-20T02:10:29;97055.22;;;0.09;86.08
1371;BME280;14306;49.942;11.570;2022-11-20T02:12:55;97045.63;;;-0.13;87.09
1371;BME280;14306;49.942;11.570;2022-11-20T02:15:39;97042.63;;;0.00;86.99
1371;BME280;14306;49.942;11.570;2022-11-20T02:18:06;97049.69;;;-0.27;86.62
1371;BME280;14306;49.942;11.570;2022-11-20T02:20:32;97055.78;;;-0.10;85.94
1371;BME280;14306;49.942;11.570;2022-11-20T02:23:03;97061.13;;;0.12;85.57
1371;BME280;14306;49.942;11.570;2022-11-20T02:25:30;97054.69;;;0.29;85.45
1371;BME280;14306;49.942;11.570;2022-11-20T02:27:58;97062.50;;;0.14;85.74
1371;BME280;14306;49.942;11.570;2022-11-20T02:30:24;97047.63;;;0.18;86.00
1371;BME280;14306;49.942;11.570;2022-11-20T02:32:50;97054.25;;;0.37;85.64
1371;BME280;14306;49.942;11.570;2022-11-20T02:37:43;97054.88;;;0.23;85.56
1371;BME280;14306;49.942;11.570;2022-11-20T02:40:10;97044.06;;;0.08;85.63
1371;BME280;14306;49.942;11.570;2022-11-20T02:42:36;97058.38;;;0.23;85.34
1371;BME280;14306;49.942;11.570;2022-11-20T02:45:03;97060.69;;;0.41;85.57
1371;BME280;14306;49.942;11.570;2022-11-20T02:47:29;97047.59;;;0.61;84.23
1371;BME280;14306;49.942;11.570;2022-11-20T02:49:54;97045.34;;;0.27;85.25
1371;BME280;14306;49.942;11.570;2022-11-20T02:52:19;97045.22;;;0.38;84.85
1371;BME280;14306;49.942;11.570;2022-11-20T02:54:45;97042.81;;;0.37;85.30
1371;BME280;14306;49.942;11.570;2022-11-20T02:57:10;97039.09;;;0.38;85.35
1371;BME280;14306;49.942;11.570;2022-11-20T02:59:35;97047.53;;;0.30;85.86
1371;BME280;14306;49.942;11.570;2022-11-20T03:02:01;97047.03;;;0.54;85.03
1371;BME280;14306;49.942;11.570;2022-11-20T03:04:26;97048.22;;;0.68;83.87
1371;BME280;14306;49.942;11.570;2022-11-20T03:06:51;97049.97;;;0.58;85.11
1371;BME280;14306;49.942;11.570;2022-11-20T03:09:17;97045.09;;;0.50;84.31
1371;BME280;14306;49.942;11.570;2022-11-20T03:11:42;97049.06;;;0.47;84.85
1371;BME280;14306;49.942;11.570;2022-11-20T03:14:08;97033.94;;;0.53;85.20
1371;BME280;14306;49.942;11.570;2022-11-20T03:16:33;97040.06;;;0.53;84.72
1371;BME280;14306;49.942;11.570;2022-11-20T03:18:59;97056.72;;;0.44;85.84
1371;BME280;14306;49.942;11.570;2022-11-20T03:21:25;97058.53;;;0.60;84.79
1371;BME280;14306;49.942;11.570;2022-11-20T03:23:50;97049.38;;;0.51;85.42
1371;BME280;14306;49.942;11.570;2022-11-20T03:26:17;97050.19;;;0.51;85.08
1371;BME280;14306;49.942;11.570;2022-11-20T03:28:47;97040.44;;;0.62;84.63
1371;BME280;14306;49.942;11.570;2022-11-20T03:31:13;97025.53;;;0.39;85.25
1371;BME280;14306;49.942;11.570;2022-11-20T03:33:40;97024.78;;;0.44;85.24
1371;BME280;14306;49.942;11.570;2022-11-20T03:36:09;97021.53;;;0.37;85.65
1371;BME280;14306;49.942;11.570;2022-11-20T03:38:36;97027.00;;;0.30;86.37
1371;BME280;14306;49.942;11.570;2022-11-20T03:41:04;97020.88;;;0.51;85.22
1371;BME280;14306;49.942;11.570;2022-11-20T03:43:29;97013.38;;;0.48;85.06
1371;BME280;14306;49.942;11.570;2022-11-20T03:45:55;97010.69;;;0.43;85.37
1371;BME280;14306;49.942;11.570;2022-11-20T03:48:20;97011.13;;;0.62;84.44
1371;BME280;14306;49.942;11.570;2022-11-20T03:50:46;97007.44;;;0.41;84.80
1371;BME280;14306;49.942;11.570;2022-11-20T03:53:13;97003.25;;;0.24;85.58
1371;BME280;14306;49.942;11.570;2022-11-20T03:55:39;96999.00;;;0.49;84.70
1371;BME280;14306;49.942;11.570;2022-11-20T03:58:04;97000.06;;;0.22;85.41
1371;BME280;14306;49.942;11.570;2022-11-20T04:00:29;97006.06;;;0.60;84.78
1371;BME280;14306;49.942;11.570;2022-11-20T04:02:58;96993.34;;;0.41;86.13
1371;BME280;14306;49.942;11.570;2022-11-20T04:05:24;97003.38;;;0.60;84.69
1371;BME280;14306;49.942;11.570;2022-11-20T04:07:49;96994.53;;;0.28;85.46
1371;BME280;14306;49.942;11.570;2022-11-20T04:10:14;96990.41;;;0.64;84.81
1371;BME280;14306;49.942;11.570;2022-11-20T04:12:40;96987.66;;;0.59;84.33
1371;BME280;14306;49.942;11.570;2022-11-20T04:15:05;96992.97;;;0.59;85.21
1371;BME280;14306;49.942;11.570;2022-11-20T04:17:31;97000.66;;;0.82;85.28
1371;BME280;14306;49.942;11.570;2022-11-20T04:19:56;97007.63;;;0.83;85.51
1371;BME280;14306;49.942;11.570;2022-11-20T04:22:21;96999.31;;;0.79;85.72
1371;BME280;14306;49.942;11.570;2022-11-20T04:24:47;97006.81;;;0.82;85.85
1371;BME280;14306;49.942;11.570;2022-11-20T04:27:12;97002.22;;;0.78;86.46
1371;BME280;14306;49.942;11.570;2022-11-20T04:29:38;97009.53;;;0.87;86.21
1371;BME280;14306;49.942;11.570;2022-11-20T04:32:03;96997.91;;;0.98;86.41
1371;BME280;14306;49.942;11.570;2022-11-20T04:34:28;96992.44;;;1.15;85.20
1371;BME280;14306;49.942;11.570;2022-11-20T04:36:54;96980.41;;;1.07;85.35
1371;BME280;14306;49.942;11.570;2022-11-20T04:39:19;96989.59;;;1.26;84.38
1371;BME280;14306;49.942;11.570;2022-11-20T04:41:44;96996.44;;;1.12;85.80
1371;BME280;14306;49.942;11.570;2022-11-20T04:44:10;96995.09;;;1.15;84.09
1371;BME280;14306;49.942;11.570;2022-11-20T04:46:39;97005.06;;;1.24;85.47
1371;BME280;14306;49.942;11.570;2022-11-20T04:49:05;97005.50;;;1.11;85.45
1371;BME280;14306;49.942;11.570;2022-11-20T04:51:30;97012.19;;;1.19;85.20
1371;BME280;14306;49.942;11.570;2022-11-20T04:53:56;97014.75;;;1.35;84.97
1371;BME280;14306;49.942;11.570;2022-11-20T04:56:21;97001.53;;;1.55;84.57
1371;BME280;14306;49.942;11.570;2022-11-20T04:58:47;97000.31;;;1.31;84.55
1371;BME280;14306;49.942;11.570;2022-11-20T05:01:14;97010.63;;;1.23;84.92
1371;BME280;14306;49.942;11.570;2022-11-20T05:03:41;97010.88;;;1.21;85.44
1371;BME280;14306;49.942;11.570;2022-11-20T05:06:07;96997.53;;;1.16;85.89
1371;BME280;14306;49.942;11.570;2022-11-20T05:08:34;97001.97;;;1.79;83.68
1371;BME280;14306;49.942;11.570;2022-11-20T05:11:01;96992.16;;;1.11;86.26
1371;BME280;14306;49.942;11.570;2022-11-20T05:13:27;96988.19;;;1.55;85.26
1371;BME280;14306;49.942;11.570;2022-11-20T05:15:52;96992.31;;;1.73;84.30
1371;BME280;14306;49.942;11.570;2022-11-20T05:18:18;97002.13;;;1.62;84.19
1371;BME280;14306;49.942;11.570;2022-11-20T05:20:43;96986.28;;;1.51;85.89
1371;BME280;14306;49.942;11.570;2022-11-20T05:23:08;96971.41;;;1.18;87.36
1371;BME280;14306;49.942;11.570;2022-11-20T05:25:34;96973.59;;;1.63;85.71
1371;BME280;14306;49.942;11.570;2022-11-20T05:27:59;96979.47;;;1.70;85.83
1371;BME280;14306;49.942;11.570;2022-11-20T05:30:24;96987.38;;;1.55;85.30
1371;BME280;14306;49.942;11.570;2022-11-20T05:32:50;96998.59;;;1.52;85.47
1371;BME280;14306;49.942;11.570;2022-11-20T05:35:15;96981.31;;;1.64;84.95
1371;BME280;14306;49.942;11.570;2022-11-20T05:37:40;96982.91;;;1.24;86.75
1371;BME280;14306;49.942;11.570;2022-11-20T05:40:06;96973.78;;;1.51;86.38
1371;BME280;14306;49.942;11.570;2022-11-20T05:42:32;96974.34;;;1.53;85.98
1371;BME280;14306;49.942;11.570;2022-11-20T05:44:58;96974.03;;;1.96;84.16
1371;BME280;14306;49.942;11.570;2022-11-20T05:47:23;96969.56;;;1.60;85.23
1371;BME280;14306;49.942;11.570;2022-11-20T05:49:49;96964.34;;;1.80;85.14
1371;BME280;14306;49.942;11.570;2022-11-20T05:52:14;96964.44;;;1.54;86.43
1371;BME280;14306;49.942;11.570;2022-11-20T05:54:39;96967.59;;;1.46;87.08
1371;BME280;14306;49.942;11.570;2022-11-20T05:57:05;96977.06;;;1.68;87.65
1371;BME280;14306;49.942;11.570;2022-11-20T05:59:30;96963.72;;;1.63;86.79
1371;BME280;14306;49.942;11.570;2022-11-20T06:01:56;96955.78;;;1.73;87.53
1371;BME280;14306;49.942;11.570;2022-11-20T06:04:21;96945.44;;;1.92;86.73
1371;BME280;14306;49.942;11.570;2022-11-20T06:06:46;96932.59;;;1.84;86.66
1371;BME280;14306;49.942;11.570;2022-11-20T06:09:11;96946.69;;;1.74;86.98
1371;BME280;14306;49.942;11.570;2022-11-20T06:11:37;96952.63;;;1.86;87.04
1371;BME280;14306;49.942;11.570;2022-11-20T06:14:02;96957.44;;;1.84;87.29
1371;BME280;14306;49.942;11.570;2022-11-20T06:16:27;96971.72;;;2.20;85.52
1371;BME280;14306;49.942;11.570;2022-11-20T06:18:53;96964.50;;;2.15;85.62
1371;BME280;14306;49.942;11.570;2022-11-20T06:21:20;96966.25;;;1.90;86.38
1371;BME280;14306;49.942;11.570;2022-11-20T06:23:47;96972.88;;;1.82;87.75
1371;BME280;14306;49.942;11.570;2022-11-20T06:26:17;96966.53;;;1.88;86.82
1371;BME280;14306;49.942;11.570;2022-11-20T06:28:43;96959.59;;;1.92;86.86
1371;BME280;14306;49.942;11.570;2022-11-20T06:31:11;96967.28;;;1.84;87.20
1371;BME280;14306;49.942;11.570;2022-11-20T06:33:37;96967.13;;;2.05;86.76
1371;BME280;14306;49.942;11.570;2022-11-20T06:36:03;96967.47;;;1.67;88.07
1371;BME280;14306;49.942;11.570;2022-11-20T06:38:29;96968.28;;;1.68;87.69
1371;BME280;14306;49.942;11.570;2022-11-20T06:40:54;96958.97;;;1.75;87.12
1371;BME280;14306;49.942;11.570;2022-11-20T06:43:21;96959.53;;;1.77;87.53
1371;BME280;14306;49.942;11.570;2022-11-20T06:45:46;96953.09;;;1.73;88.15
1371;BME280;14306;49.942;11.570;2022-11-20T06:48:16;96957.66;;;1.36;88.54
1371;BME280;14306;49.942;11.570;2022-11-20T06:50:41;96973.41;;;1.33;88.74
1371;BME280;14306;49.942;11.570;2022-11-20T06:53:06;96983.16;;;1.59;89.13
1371;BME280;14306;49.942;11.570;2022-11-20T06:55:32;96977.47;;;1.97;88.44
1371;BME280;14306;49.942;11.570;2022-11-20T06:57:57;96985.34;;;2.18;87.04
1371;BME280;14306;49.942;11.570;2022-11-20T07:00:23;96992.72;;;2.01;87.21
1371;BME280;14306;49.942;11.570;2022-11-20T07:02:48;96980.66;;;1.89;86.99
1371;BME280;14306;49.942;11.570;2022-11-20T07:05:15;96980.44;;;1.95;86.97
1371;BME280;14306;49.942;11.570;2022-11-20T07:07:40;96984.91;;;1.85;87.48
1371;BME280;14306;49.942;11.570;2022-11-20T07:10:05;96973.97;;;1.86;88.00
1371;BME280;14306;49.942;11.570;2022-11-20T07:12:31;96979.13;;;2.08;87.77
1371;BME280;14306;49.942;11.570;2022-11-20T07:14:56;96997.13;;;1.76;87.44
1371;BME280;14306;49.942;11.570;2022-11-20T07:17:21;97007.69;;;2.02;88.00
1371;BME280;14306;49.942;11.570;2022-11-20T07:19:47;96989.94;;;2.33;86.45
1371;BME280;14306;49.942;11.570;2022-11-20T07:22:12;96986.88;;;1.99;87.35
1371;BME280;14306;49.942;11.570;2022-11-20T07:24:38;96974.22;;;1.85;87.93
1371;BME280;14306;49.942;11.570;2022-11-20T07:27:04;96974.13;;;1.70;88.32
1371;BME280;14306;49.942;11.570;2022-11-20T07:29:29;96966.88;;;1.60;88.63
1371;BME280;14306;49.942;11.570;2022-11-20T07:31:55;96971.81;;;1.83;88.66
1371;BME280;14306;49.942;11.570;2022-11-20T07:34:21;96964.44;;;1.95;87.91
1371;BME280;14306;49.942;11.570;2022-11-20T07:36:46;96969.59;;;1.65;89.10
1371;BME280;14306;49.942;11.570;2022-11-20T07:39:11;96957.28;;;2.16;88.22
1371;BME280;14306;49.942;11.570;2022-11-20T07:41:37;96959.16;;;2.20;87.01
1371;BME280;14306;49.942;11.570;2022-11-20T07:44:02;96958.19;;;2.41;85.86
1371;BME280;14306;49.942;11.570;2022-11-20T07:46:28;96964.25;;;2.27;87.17
1371;BME280;14306;49.942;11.570;2022-11-20T07:48:53;96973.44;;;2.61;85.96
1371;BME280;14306;49.942;11.570;2022-11-20T07:51:18;96981.72;;;2.54;85.17
1371;BME280;14306;49.942;11.570;2022-11-20T07:53:44;96978.25;;;2.59;86.32
1371;BME280;14306;49.942;11.570;2022-11-20T07:56:09;96992.44;;;2.64;86.35
1371;BME280;14306;49.942;11.570;2022-11-20T07:58:34;96980.69;;;2.65;86.83
1371;BME280;14306;49.942;11.570;2022-11-20T08:01:05;96969.34;;;2.28;87.63
1371;BME280;14306;49.942;11.570;2022-11-20T08:03:31;96973.13;;;2.47;86.19
1371;BME280;14306;49.942;11.570;2022-11-20T08:06:01;96974.22;;;2.51;86.10
1371;BME280;14306;49.942;11.570;2022-11-20T08:08:27;96967.84;;;2.62;85.75
1371;BME280;14306;49.942;11.570;2022-11-20T08:10:53;96979.34;;;2.63;85.15
1371;BME280;14306;49.942;11.570;2022-11-20T08:13:38;96969.22;;;2.90;85.00
1371;BME280;14306;49.942;11.570;2022-11-20T08:16:22;96970.28;;;3.19;84.90
1371;BME280;14306;49.942;11.570;2022-11-20T08:18:47;96970.56;;;3.22;84.38
1371;BME280;14306;49.942;11.570;2022-11-20T08:21:13;96970.78;;;2.81;85.15
1371;BME280;14306;49.942;11.570;2022-11-20T08:23:38;96964.03;;;2.43;86.59
1371;BME280;14306;49.942;11.570;2022-11-20T08:26:04;96956.56;;;2.40;87.11
1371;BME280;14306;49.942;11.570;2022-11-20T08:28:29;96967.44;;;2.24;87.58
1371;BME280;14306;49.942;11.570;2022-11-20T08:30:59;96970.47;;;2.37;87.07
1371;BME280;14306;49.942;11.570;2022-11-20T08:33:25;96972.09;;;2.58;86.54
1371;BME280;14306;49.942;11.570;2022-11-20T08:35:50;96981.78;;;2.94;85.84
1371;BME280;14306;49.942;11.570;2022-11-20T08:38:16;96976.69;;;2.83;86.45
1371;BME280;14306;49.942;11.570;2022-11-20T08:40:41;96985.00;;;3.16;85.77
1371;BME280;14306;49.942;11.570;2022-11-20T08:43:26;96978.31;;;2.94;84.95
1371;BME280;14306;49.942;11.570;2022-11-20T08:45:52;96971.09;;;3.04;86.41
1371;BME280;14306;49.942;11.570;2022-11-20T08:48:17;96971.38;;;2.98;86.41
1371;BME280;14306;49.942;11.570;2022-11-20T08:50:42;96961.47;;;2.88;86.60
1371;BME280;14306;49.942;11.570;2022-11-20T08:53:08;96971.34;;;2.88;85.84
1371;BME280;14306;49.942;11.570;2022-11-20T08:55:33;96969.47;;;2.78;86.95
1371;BME280;14306;49.942;11.570;2022-11-20T08:58:04;96978.53;;;2.67;87.08
1371;BME280;14306;49.942;11.570;2022-11-20T09:00:29;96982.75;;;2.48;87.79
1371;BME280;14306;49.942;11.570;2022-11-20T09:02:54;96970.53;;;2.77;86.94
1371;BME280;14306;49.942;11.570;2022-11-20T09:05:19;96983.34;;;2.70;87.06
1371;BME280;14306;49.942;11.570;2022-11-20T09:07:45;96989.50;;;2.81;87.01
1371;BME280;14306;49.942;11.570;2022-11-20T09:10:10;97001.59;;;3.33;85.89
1371;BME280;14306;49.942;11.570;2022-11-20T09:12:36;96987.16;;;3.34;86.49
1371;BME280;14306;49.942;11.570;2022-11-20T09:15:01;96992.75;;;3.08;86.41
1371;BME280;14306;49.942;11.570;2022-11-20T09:17:26;96987.94;;;3.55;85.05
1371;BME280;14306;49.942;11.570;2022-11-20T09:19:52;96997.56;;;3.26;85.34
1371;BME280;14306;49.942;11.570;2022-11-20T09:22:17;97004.53;;;3.27;86.24
1371;BME280;14306;49.942;11.570;2022-11-20T09:24:42;96993.84;;;3.37;86.37
1371;BME280;14306;49.942;11.570;2022-11-20T09:27:08;96985.25;;;3.00;86.73
1371;BME280;14306;49.942;11.570;2022-11-20T09:29:33;96972.97;;;3.04;87.33
1371;BME280;14306;49.942;11.570;2022-11-20T09:31:59;96979.66;;;2.91;87.38
1371;BME280;14306;49.942;11.570;2022-11-20T09:34:24;96973.50;;;2.91;89.01
1371;BME280;14306;49.942;11.570;2022-11-20T09:36:49;96976.97;;;3.36;85.87
1371;BME280;14306;49.942;11.570;2022-11-20T09:39:15;96987.94;;;3.15;85.55
1371;BME280;14306;49.942;11.570;2022-11-20T09:42:04;96978.31;;;3.29;85.94
1371;BME280;14306;49.942;11.570;2022-11-20T09:47:10;96965.47;;;3.26;85.30
1371;BME280;14306;49.942;11.570;2022-11-20T09:49:59;96958.25;;;3.41;84.80
1371;BME280;14306;49.942;11.570;2022-11-20T09:55:24;96936.59;;;2.88;88.25
1371;BME280;14306;49.942;11.570;2022-11-20T09:57:51;96935.22;;;2.50;89.10
1371;BME280;14306;49.942;11.570;2022-11-20T10:00:18;96920.78;;;2.41;89.76
1371;BME280;14306;49.942;11.570;2022-11-20T10:02:59;96914.38;;;2.57;90.43
1371;BME280;14306;49.942;11.570;2022-11-20T10:05:27;96921.88;;;2.90;89.15
1371;BME280;14306;49.942;11.570;2022-11-20T10:08:25;96932.28;;;3.42;88.04
1371;BME280;14306;49.942;11.570;2022-11-20T10:11:35;96935.00;;;3.12;87.29
1371;BME280;14306;49.942;11.570;2022-11-20T10:14:38;96925.84;;;3.48;87.35
1371;BME280;14306;49.942;11.570;2022-11-20T10:20:16;96911.84;;;3.81;86.82
1371;BME280;14306;49.942;11.570;2022-11-20T10:25:47;96925.19;;;3.91;85.91
1371;BME280;14306;49.942;11.570;2022-11-20T10:31:09;96926.84;;;3.72;86.58
1371;BME280;14306;49.942;11.570;2022-11-20T10:33:39;96932.69;;;3.94;86.19
1371;BME280;14306;49.942;11.570;2022-11-20T10:36:19;96929.41;;;4.07;85.79
1371;BME280;14306;49.942;11.570;2022-11-20T10:38:51;96927.66;;;3.72;86.89
1371;BME280;14306;49.942;11.570;2022-11-20T10:41:27;96927.72;;;3.47;87.58
1371;BME280;14306;49.942;11.570;2022-11-20T10:46:34;96937.34;;;3.43;87.79
1371;BME280;14306;49.942;11.570;2022-11-20T10:49:06;96928.22;;;3.59;87.12
1371;BME280;14306;49.942;11.570;2022-11-20T10:52:12;96935.41;;;3.79;86.37
1371;BME280;14306;49.942;11.570;2022-11-20T11:00:09;96924.94;;;3.87;86.62
1371;BME280;14306;49.942;11.570;2022-11-20T11:02:41;96928.13;;;4.48;85.11
1371;BME280;14306;49.942;11.570;2022-11-20T11:05:17;96902.56;;;4.22;86.86
1371;BME280;14306;49.942;11.570;2022-11-20T11:07:53;96902.78;;;4.31;86.56
1371;BME280;14306;49.942;11.570;2022-11-20T11:10:56;96899.19;;;4.50;85.28
1371;BME280;14306;49.942;11.570;2022-11-20T11:13:27;96899.09;;;4.22;86.25
1371;BME280;14306;49.942;11.570;2022-11-20T11:15:54;96920.06;;;4.58;85.16
1371;BME280;14306;49.942;11.570;2022-11-20T11:18:29;96911.75;;;4.55;86.50
1371;BME280;14306;49.942;11.570;2022-11-20T11:20:56;96924.28;;;4.64;84.31
1371;BME280;14306;49.942;11.570;2022-11-20T11:24:00;96919.56;;;4.51;83.92
1371;BME280;14306;49.942;11.570;2022-11-20T11:26:26;96925.72;;;4.47;85.93
1371;BME280;14306;49.942;11.570;2022-11-20T11:29:03;96916.00;;;4.12;85.79
1371;BME280;14306;49.942;11.570;2022-11-20T11:31:33;96920.69;;;4.40;84.89
1371;BME280;14306;49.942;11.570;2022-11-20T11:34:10;96915.94;;;4.27;85.68
1371;BME280;14306;49.942;11.570;2022-11-20T11:36:37;96919.97;;;4.19;85.66
1371;BME280;14306;49.942;11.570;2022-11-20T11:39:05;96906.00;;;4.28;85.74
1371;BME280;14306;49.942;11.570;2022-11-20T11:41:33;96902.28;;;4.29;86.27
1371;BME280;14306;49.942;11.570;2022-11-20T11:44:16;96900.72;;;4.61;84.25
1371;BME280;14306;49.942;11.570;2022-11-20T11:47:01;96911.56;;;4.41;86.00
1371;BME280;14306;49.942;11.570;2022-11-20T11:49:28;96901.19;;;4.73;85.66
1371;BME280;14306;49.942;11.570;2022-11-20T11:52:15;96901.22;;;5.02;83.63
1371;BME280;14306;49.942;11.570;2022-11-20T11:54:52;96886.59;;;5.18;83.08
1371;BME280;14306;49.942;11.570;2022-11-20T12:00:09;96895.88;;;5.02;85.98
1371;BME280;14306;49.942;11.570;2022-11-20T12:02:57;96900.41;;;5.01;85.32
1371;BME280;14306;49.942;11.570;2022-11-20T12:05:45;96899.81;;;5.09;85.08
1371;BME280;14306;49.942;11.570;2022-11-20T12:10:45;96877.00;;;5.64;86.65
1371;BME280;14306;49.942;11.570;2022-11-20T12:13:22;96878.09;;;5.63;84.34
1371;BME280;14306;49.942;11.570;2022-11-20T12:15:51;96876.09;;;5.97;82.60
1371;BME280;14306;49.942;11.570;2022-11-20T12:18:21;96878.81;;;5.45;83.68
1371;BME280;14306;49.942;11.570;2022-11-20T12:37:02;96868.88;;;5.45;84.56
1371;BME280;14306;49.942;11.570;2022-11-20T12:39:42;96876.16;;;5.68;85.62
1371;BME280;14306;49.942;11.570;2022-11-20T12:42:18;96872.53;;;5.78;84.70
1371;BME280;14306;49.942;11.570;2022-11-20T12:51:11;96869.72;;;5.64;84.29
1371;BME280;14306;49.942;11.570;2022-11-20T12:57:24;96868.16;;;5.87;86.18
1371;BME280;14306;49.942;11.570;2022-11-20T13:00:07;96867.75;;;5.75;86.47
1371;BME280;14306;49.942;11.570;2022-11-20T13:02:44;96871.69;;;5.82;84.09
1371;BME280;14306;49.942;11.570;2022-11-20T13:05:19;96869.25;;;5.34;87.31
1371;BME280;14306;49.942;11.570;2022-11-20T13:07:50;96861.06;;;5.72;85.49
1371;BME280;14306;49.942;11.570;2022-11-20T13:10:22;96861.31;;;5.47;86.94
1371;BME280;14306;49.942;11.570;2022-11-20T13:12:58;96860.81;;;5.69;86.63
1371;BME280;14306;49.942;11.570;2022-11-20T13:15:36;96866.03;;;5.84;86.09
1371;BME280;14306;49.942;11.570;2022-11-20T13:18:09;96861.97;;;5.86;85.44
1371;BME280;14306;49.942;11.570;2022-11-20T13:20:41;96860.56;;;5.94;84.58
1371;BME280;14306;49.942;11.570;2022-11-20T13:23:08;96870.50;;;5.93;84.59
1371;BME280;14306;49.942;11.570;2022-11-20T13:25:36;96869.84;;;6.01;83.82
1371;BME280;14306;49.942;11.570;2022-11-20T13:28:26;96866.66;;;5.99;83.85
1371;BME280;14306;49.942;11.570;2022-11-20T13:30:54;96867.16;;;6.01;84.13
1371;BME280;14306;49.942;11.570;2022-11-20T13:33:25;96869.91;;;6.20;84.73
1371;BME280;14306;49.942;11.570;2022-11-20T13:35:58;96858.41;;;6.33;83.28
1371;BME280;14306;49.942;11.570;2022-11-20T13:38:25;96863.47;;;5.97;85.95
1371;BME280;14306;49.942;11.570;2022-11-20T13:40:53;96856.78;;;6.13;83.87
1371;BME280;14306;49.942;11.570;2022-11-20T13:43:35;96859.56;;;6.27;84.70
1371;BME280;14306;49.942;11.570;2022-11-20T13:46:04;96860.78;;;6.16;84.47
1371;BME280;14306;49.942;11.570;2022-11-20T13:48:33;96863.13;;;6.22;82.94
1371;BME280;14306;49.942;11.570;2022-11-20T13:51:17;96856.88;;;6.27;83.51
1371;BME280;14306;49.942;11.570;2022-11-20T13:54:14;96853.72;;;5.83;83.89
1371;BME280;14306;49.942;11.570;2022-11-20T13:56:54;96854.53;;;5.78;83.54
1371;BME280;14306;49.942;11.570;2022-11-20T13:59:46;96858.91;;;5.98;82.73
1371;BME280;14306;49.942;11.570;2022-11-20T14:02:16;96863.56;;;6.11;85.08
1371;BME280;14306;49.942;11.570;2022-11-20T14:04:46;96863.06;;;6.09;82.97
1371;BME280;14306;49.942;11.570;2022-11-20T14:07:14;96854.38;;;6.12;82.35
1371;BME280;14306;49.942;11.570;2022-11-20T14:09:49;96857.16;;;6.07;81.12
1371;BME280;14306;49.942;11.570;2022-11-20T14:12:21;96862.41;;;5.70;82.64
1371;BME280;14306;49.942;11.570;2022-11-20T14:14:52;96869.16;;;5.67;83.25
1371;BME280;14306;49.942;11.570;2022-11-20T14:17:21;96868.09;;;5.68;83.33
1371;BME280;14306;49.942;11.570;2022-11-20T14:19:49;96870.00;;;5.91;86.91